Time;durP1;ratioP1;P1;durP2;ratioP2;P2;SDS_P1;SDS_P2;PMS_P1;PMS_P2;Temp;Humidity;BMP_temperature;BMP_pressure;BME280_temperature;BME280_humidity;BME280_pressure;Samples;Min_cycle;Max_cycle;Signal;HPM_P1;HPM_P2
2022/03/04 00:02:25;;;;;;;;;69.00;53.75;;;;;10.88;73.02;101417.88;5021788;28;45361;-67
2022/03/04 00:04:50;;;;;;;;;61.25;49.25;;;;;10.92;72.78;101423.94;5021576;28;45269;-67
2022/03/04 00:07:15;;;;;;;;;70.00;53.50;;;;;10.92;72.93;101422.09;5023453;28;45369;-66
2022/03/04 00:09:41;;;;;;;;;63.50;49.50;;;;;10.91;72.94;101428.50;5022785;28;45328;-67
2022/03/04 00:12:08;;;;;;;;;66.25;52.25;;;;;10.90;72.85;101417.75;5021627;28;45594;-67
2022/03/04 00:14:33;;;;;;;;;69.75;50.75;;;;;10.95;73.03;101422.81;5021695;28;45473;-67
2022/03/04 00:16:59;;;;;;;;;67.75;54.75;;;;;10.91;73.26;101417.63;5021873;28;45316;-67
2022/03/04 00:19:24;;;;;;;;;70.50;54.25;;;;;10.92;73.27;101419.38;5021831;28;45371;-67
2022/03/04 00:21:51;;;;;;;;;69.25;54.25;;;;;10.90;73.27;101415.91;5021552;28;45340;-67
2022/03/04 00:24:17;;;;;;;;;66.50;52.75;;;;;10.96;72.72;101421.81;5022941;28;45543;-67
2022/03/04 00:26:44;;;;;;;;;64.50;50.50;;;;;10.99;72.68;101418.81;5021490;28;45852;-67
2022/03/04 00:29:10;;;;;;;;;64.00;48.75;;;;;11.03;72.48;101425.72;5022392;28;46627;-67
2022/03/04 00:31:36;;;;;;;;;66.00;50.00;;;;;11.08;72.28;101428.91;5022582;28;45730;-67
2022/03/04 00:34:06;;;;;;;;;64.00;49.50;;;;;11.12;72.28;101419.44;5022837;28;45309;-67
2022/03/04 00:36:32;;;;;;;;;65.50;50.50;;;;;11.13;72.19;101427.47;5023123;28;45414;-67
2022/03/04 00:38:58;;;;;;;;;66.00;51.25;;;;;11.09;71.54;101422.47;5022447;28;46817;-67
2022/03/04 00:41:24;;;;;;;;;68.25;54.00;;;;;11.06;72.43;101422.72;5022748;28;45213;-67
2022/03/04 00:43:50;;;;;;;;;69.75;55.00;;;;;10.96;73.01;101413.66;5021079;28;45537;-67
2022/03/04 00:46:17;;;;;;;;;72.00;55.50;;;;;10.96;73.31;101417.22;5021718;28;45651;-67
2022/03/04 00:48:43;;;;;;;;;79.50;58.00;;;;;10.87;73.96;101416.19;5022465;28;46625;-67
2022/03/04 00:51:10;;;;;;;;;72.00;56.00;;;;;10.91;73.80;101409.47;5022612;28;45454;-67
2022/03/04 00:53:36;;;;;;;;;76.25;57.25;;;;;10.97;73.74;101416.22;5022391;28;45454;-68
2022/03/04 00:56:02;;;;;;;;;68.25;53.50;;;;;10.97;73.20;101409.94;5021514;28;45389;-68
2022/03/04 00:58:28;;;;;;;;;67.75;53.00;;;;;10.99;73.31;101407.94;5022060;28;45753;-68
2022/03/04 01:00:53;;;;;;;;;69.25;53.50;;;;;11.03;72.63;101403.97;5021186;28;45397;-68
2022/03/04 01:03:19;;;;;;;;;67.25;54.00;;;;;11.03;72.65;101409.41;5022390;28;45214;-68
2022/03/04 01:05:44;;;;;;;;;69.50;55.25;;;;;11.05;72.53;101410.13;5021577;28;45404;-68
2022/03/04 01:08:10;;;;;;;;;71.25;53.75;;;;;10.98;73.10;101412.53;5020895;28;47164;-68
2022/03/04 01:10:36;;;;;;;;;74.00;56.00;;;;;10.94;73.29;101413.78;5022376;28;45433;-68
2022/03/04 01:13:02;;;;;;;;;73.75;56.00;;;;;10.95;73.15;101425.53;5022085;28;45231;-68
2022/03/04 01:15:27;;;;;;;;;67.75;52.50;;;;;10.90;72.95;101415.91;5022768;28;45328;-68
2022/03/04 01:17:53;;;;;;;;;68.75;51.75;;;;;10.85;72.92;101410.03;5021812;28;46383;-67
2022/03/04 01:20:19;;;;;;;;;67.50;54.00;;;;;10.85;73.28;101415.47;5022238;28;45324;-67
2022/03/04 01:22:44;;;;;;;;;64.50;52.00;;;;;10.87;73.32;101415.34;5021977;28;45413;-67
2022/03/04 01:25:11;;;;;;;;;72.25;55.75;;;;;10.84;72.99;101416.44;5022672;28;45351;-67
2022/03/04 01:27:36;;;;;;;;;70.25;53.25;;;;;10.82;73.32;101421.16;5021431;28;45341;-67
2022/03/04 01:30:04;;;;;;;;;72.25;55.00;;;;;10.82;73.73;101415.72;5024207;28;45310;-68
2022/03/04 01:32:30;;;;;;;;;70.75;56.50;;;;;10.80;73.63;101415.00;5024441;28;45391;-67
2022/03/04 01:34:55;;;;;;;;;73.25;55.25;;;;;10.75;73.39;101411.81;5024738;28;45419;-68
2022/03/04 01:37:20;;;;;;;;;69.50;52.75;;;;;10.76;73.49;101413.53;5025489;28;46392;-67
2022/03/04 01:39:46;;;;;;;;;68.25;55.00;;;;;10.75;73.62;101410.94;5025563;28;45307;-67
2022/03/04 01:42:11;;;;;;;;;75.75;57.00;;;;;10.75;73.52;101417.25;5025397;28;45311;-68
2022/03/04 01:44:36;;;;;;;;;71.25;56.25;;;;;10.74;73.76;101420.13;5025987;28;45335;-67
2022/03/04 01:47:02;;;;;;;;;68.75;53.50;;;;;10.70;74.01;101408.63;5025376;28;45570;-67
2022/03/04 01:49:28;;;;;;;;;69.00;53.50;;;;;10.70;73.90;101407.78;5025411;28;45371;-67
2022/03/04 01:51:53;;;;;;;;;72.00;53.50;;;;;10.66;73.63;101401.75;5040743;28;45572;-68
2022/03/04 01:54:19;;;;;;;;;67.25;52.00;;;;;10.66;73.75;101409.03;5024486;28;45342;-67
2022/03/04 01:56:44;;;;;;;;;68.50;54.00;;;;;10.57;73.77;101404.41;5024913;28;46479;-67
2022/03/04 01:59:10;;;;;;;;;68.25;54.25;;;;;10.51;73.88;101401.22;5025268;28;45371;-67
2022/03/04 02:01:35;;;;;;;;;74.75;55.25;;;;;10.48;74.09;101408.75;5024012;28;45313;-68
2022/03/04 02:04:01;;;;;;;;;71.25;56.75;;;;;10.38;74.37;101391.53;5025703;28;45473;-68
2022/03/04 02:06:26;;;;;;;;;72.25;53.00;;;;;10.36;73.86;101390.81;5024927;28;46218;-67
2022/03/04 02:08:52;;;;;;;;;68.75;54.50;;;;;10.35;73.86;101394.53;5023773;28;45409;-68
2022/03/04 02:11:17;;;;;;;;;72.00;55.50;;;;;10.25;74.06;101391.72;5025139;28;45418;-68
2022/03/04 02:13:43;;;;;;;;;75.00;55.75;;;;;10.18;73.66;101395.09;5025251;28;45281;-67
2022/03/04 02:16:34;;;;;;;;;67.75;52.25;;;;;10.15;74.45;101397.03;5024865;28;45351;-68
2022/03/04 02:19:00;;;;;;;;;74.75;56.00;;;;;10.13;74.62;101399.03;5023641;28;45845;-68
2022/03/04 02:21:26;;;;;;;;;77.00;58.00;;;;;10.09;75.01;101392.13;5020546;28;45769;-68
2022/03/04 02:23:52;;;;;;;;;73.50;57.25;;;;;9.98;75.68;101389.47;5018450;28;45406;-68
2022/03/04 02:26:17;;;;;;;;;73.00;56.00;;;;;9.93;75.83;101390.84;5024773;28;45347;-68
2022/03/04 02:28:44;;;;;;;;;67.00;49.75;;;;;9.88;76.17;101401.19;5022895;28;45545;-68
2022/03/04 02:31:13;;;;;;;;;77.75;61.00;;;;;9.81;76.26;101389.13;5024855;28;45292;-68
2022/03/04 02:33:39;;;;;;;;;72.75;56.25;;;;;9.80;76.68;101392.84;5025487;28;45315;-68
2022/03/04 02:36:04;;;;;;;;;75.25;58.50;;;;;9.73;76.94;101384.34;5024442;28;46190;-68
2022/03/04 02:38:30;;;;;;;;;74.75;56.25;;;;;9.72;76.62;101383.47;5024624;28;45303;-68
2022/03/04 02:40:55;;;;;;;;;77.75;59.25;;;;;9.73;76.45;101395.19;5024066;28;45304;-68
2022/03/04 02:43:20;;;;;;;;;79.25;59.00;;;;;9.68;77.19;101390.16;5024924;28;45362;-68
2022/03/04 02:45:46;;;;;;;;;73.50;57.00;;;;;9.70;76.58;101392.75;5024394;28;45355;-68
2022/03/04 02:48:11;;;;;;;;;72.25;54.00;;;;;9.70;76.10;101390.03;5023221;28;45486;-68
2022/03/04 02:50:36;;;;;;;;;73.50;56.25;;;;;9.64;76.96;101382.41;5023136;28;45355;-68
2022/03/04 02:53:02;;;;;;;;;74.75;56.75;;;;;9.62;77.49;101387.09;5023588;28;45370;-68
2022/03/04 02:55:28;;;;;;;;;74.00;56.00;;;;;9.60;77.84;101389.06;5024306;28;46656;-68
2022/03/04 02:57:53;;;;;;;;;75.25;58.00;;;;;9.47;78.59;101383.81;5024020;28;45333;-68
2022/03/04 03:00:19;;;;;;;;;69.50;55.00;;;;;9.52;78.11;101387.00;5024318;28;45223;-68
2022/03/04 03:02:44;;;;;;;;;73.75;57.75;;;;;9.61;77.99;101398.94;5024994;28;45411;-68
2022/03/04 03:05:10;;;;;;;;;74.50;57.50;;;;;9.59;78.33;101392.78;5023968;28;45402;-68
2022/03/04 03:07:36;;;;;;;;;73.50;58.75;;;;;9.58;77.74;101391.91;5024274;28;45176;-68
2022/03/04 03:10:04;;;;;;;;;73.00;55.50;;;;;9.69;77.66;101393.75;5024058;28;45430;-68
2022/03/04 03:12:29;;;;;;;;;72.25;55.50;;;;;9.73;77.01;101398.78;5024270;28;45501;-68
2022/03/04 03:14:55;;;;;;;;;71.25;53.25;;;;;9.60;77.58;101383.66;5023863;28;45957;-69
2022/03/04 03:17:20;;;;;;;;;65.25;52.50;;;;;9.64;77.65;101395.97;5023893;28;45383;-68
2022/03/04 03:19:46;;;;;;;;;70.50;52.75;;;;;9.65;77.27;101390.41;5024205;28;45522;-69
2022/03/04 03:22:12;;;;;;;;;70.00;52.25;;;;;9.67;77.26;101393.88;5024475;28;45405;-67
2022/03/04 03:24:37;;;;;;;;;66.50;51.00;;;;;9.74;76.80;101396.94;5022383;28;48008;-68
2022/03/04 03:27:03;;;;;;;;;63.25;48.00;;;;;9.82;76.41;101405.28;5022084;28;45343;-67
2022/03/04 03:29:28;;;;;;;;;67.50;48.75;;;;;9.89;76.06;101398.38;5022575;28;45484;-67
2022/03/04 03:31:53;;;;;;;;;68.50;52.25;;;;;9.90;75.71;101408.25;5022998;28;45349;-67
2022/03/04 03:34:19;;;;;;;;;61.75;49.00;;;;;9.93;75.48;101399.84;5023631;28;45388;-68
2022/03/04 03:36:44;;;;;;;;;62.50;50.00;;;;;9.84;75.81;101400.63;5023712;28;45437;-68
2022/03/04 03:39:10;;;;;;;;;69.50;51.50;;;;;9.85;75.53;101410.47;5023728;28;45343;-69
2022/03/04 03:41:36;;;;;;;;;67.50;50.75;;;;;9.80;75.70;101409.97;5022716;28;45502;-67
2022/03/04 03:44:02;;;;;;;;;60.50;48.50;;;;;9.73;76.54;101406.91;5021929;28;47160;-69
2022/03/04 03:46:27;;;;;;;;;57.75;46.00;;;;;9.78;76.56;101409.28;5035313;28;45396;-69
2022/03/04 03:48:53;;;;;;;;;61.25;45.00;;;;;9.71;75.92;101406.22;5021552;28;45430;-68
2022/03/04 03:51:18;;;;;;;;;63.75;50.75;;;;;9.79;76.19;101408.25;5023988;28;45550;-68
2022/03/04 03:53:44;;;;;;;;;63.50;49.25;;;;;9.79;75.68;101410.13;5022248;28;46318;-68
2022/03/04 03:56:09;;;;;;;;;58.75;46.50;;;;;9.82;75.93;101409.88;5022142;28;45347;-68
2022/03/04 03:58:35;;;;;;;;;60.25;49.25;;;;;9.84;75.76;101408.75;5018589;28;45430;-68
2022/03/04 04:01:00;;;;;;;;;54.00;47.00;;;;;9.84;75.63;101406.03;5015008;28;45541;-68
2022/03/04 04:03:26;;;;;;;;;62.00;49.00;;;;;9.83;75.53;101411.59;5022992;28;45379;-69
2022/03/04 04:05:51;;;;;;;;;61.25;50.00;;;;;9.82;75.02;101418.00;5023008;28;45405;-69
2022/03/04 04:08:17;;;;;;;;;64.25;50.00;;;;;9.85;75.62;101415.03;5023331;28;45439;-69
2022/03/04 04:10:42;;;;;;;;;60.00;50.50;;;;;9.83;75.92;101414.31;5022347;28;45332;-69
2022/03/04 04:13:07;;;;;;;;;62.75;49.25;;;;;9.88;75.63;101418.34;5021347;28;47238;-70
2022/03/04 04:15:33;;;;;;;;;60.25;48.00;;;;;9.88;75.70;101425.63;5023109;28;45353;-68
2022/03/04 04:17:58;;;;;;;;;67.50;52.75;;;;;9.87;75.20;101422.06;5023078;28;45415;-68
2022/03/04 04:20:24;;;;;;;;;66.75;53.00;;;;;9.87;75.55;101426.63;5022258;28;45358;-69
2022/03/04 04:22:49;;;;;;;;;70.25;55.75;;;;;9.93;75.28;101423.41;5022778;28;45508;-68
2022/03/04 04:25:14;;;;;;;;;67.00;53.25;;;;;9.83;74.99;101417.88;5022901;28;45372;-68
2022/03/04 04:27:40;;;;;;;;;65.50;52.00;;;;;9.94;75.19;101425.97;5021233;28;45456;-67
2022/03/04 04:30:06;;;;;;;;;64.50;52.00;;;;;9.95;75.46;101422.28;5023457;28;45531;-68
2022/03/04 04:32:32;;;;;;;;;73.75;55.50;;;;;9.92;75.51;101427.97;5021217;28;48010;-68
2022/03/04 04:34:57;;;;;;;;;67.25;54.00;;;;;9.90;75.58;101429.09;5022664;28;45326;-69
2022/03/04 04:37:22;;;;;;;;;64.25;52.25;;;;;10.00;75.78;101435.50;5021432;28;45260;-68
2022/03/04 04:39:48;;;;;;;;;75.75;57.00;;;;;10.02;75.57;101425.34;5021950;28;45316;-70
2022/03/04 04:42:13;;;;;;;;;71.50;55.00;;;;;9.87;75.48;101424.75;5022223;28;45391;-68
2022/03/04 04:44:38;;;;;;;;;72.50;57.25;;;;;9.77;76.14;101423.81;5022510;28;45264;-68
2022/03/04 04:47:06;;;;;;;;;71.75;53.25;;;;;9.76;76.21;101427.53;5022498;28;45320;-68
2022/03/04 04:49:35;;;;;;;;;63.75;50.00;;;;;9.77;76.36;101430.13;5023217;28;45312;-68
2022/03/04 04:52:01;;;;;;;;;66.75;51.50;;;;;9.77;76.29;101431.97;5022370;28;46233;-68
2022/03/04 04:54:26;;;;;;;;;70.25;54.00;;;;;9.71;76.97;101436.06;5022529;28;45300;-68
2022/03/04 04:56:51;;;;;;;;;63.25;50.50;;;;;9.74;76.80;101429.50;5018612;28;45343;-68
2022/03/04 04:59:17;;;;;;;;;67.25;51.00;;;;;9.84;76.87;101430.47;5011854;28;45350;-68
2022/03/04 05:01:43;;;;;;;;;65.75;49.75;;;;;9.90;76.05;101429.94;5022423;28;45446;-68
2022/03/04 05:04:09;;;;;;;;;69.00;52.00;;;;;10.00;76.09;101435.50;5020735;28;45498;-68
2022/03/04 05:06:34;;;;;;;;;63.50;52.25;;;;;10.07;75.72;101426.72;5017785;28;45421;-68
2022/03/04 05:08:59;;;;;;;;;67.75;54.75;;;;;10.13;75.54;101437.03;5013168;28;45622;-68
2022/03/04 05:11:25;;;;;;;;;66.25;53.75;;;;;10.13;75.45;101441.59;5022002;28;45429;-68
2022/03/04 05:13:50;;;;;;;;;65.00;51.00;;;;;10.13;74.94;101437.03;5022199;28;45350;-68
2022/03/04 05:16:16;;;;;;;;;64.00;51.00;;;;;9.96;75.90;101443.00;5022144;28;45299;-68
2022/03/04 05:18:41;;;;;;;;;24.25;10.00;;;;;9.99;75.81;101444.63;5022721;28;45503;-68
2022/03/04 05:21:07;;;;;;;;;69.00;50.50;;;;;9.99;75.45;101442.75;5020679;28;46934;-68
2022/03/04 05:26:16;;;;;;;;;68.25;53.00;;;;;10.08;75.55;101450.13;5021979;28;46498;-68
2022/03/04 05:28:42;;;;;;;;;61.25;49.25;;;;;10.02;75.57;101442.50;5020526;28;45451;-68
2022/03/04 05:31:07;;;;;;;;;62.25;49.00;;;;;10.05;75.40;101439.53;5016357;28;47319;-67
2022/03/04 05:33:33;;;;;;;;;66.00;50.25;;;;;10.13;75.38;101453.34;5014219;28;45371;-68
2022/03/04 05:35:59;;;;;;;;;67.25;52.00;;;;;10.15;75.34;101451.34;5021907;28;45474;-68
2022/03/04 05:38:25;;;;;;;;;75.25;55.00;;;;;10.20;75.60;101447.41;5020417;28;45474;-67
2022/03/04 05:40:50;;;;;;;;;65.75;52.75;;;;;10.21;75.31;101443.72;5019827;28;47005;-68
2022/03/04 05:43:16;;;;;;;;;66.75;51.75;;;;;10.25;74.98;101456.03;5021353;28;45392;-68
2022/03/04 05:45:41;;;;;;;;;63.00;51.75;;;;;10.28;74.92;101453.06;5020213;28;45436;-67
2022/03/04 05:48:07;;;;;;;;;66.00;51.00;;;;;10.29;74.95;101447.50;5020173;28;45530;-68
2022/03/04 05:50:33;;;;;;;;;67.25;52.25;;;;;10.34;74.50;101449.84;5020891;28;45997;-68
2022/03/04 05:52:58;;;;;;;;;68.50;55.25;;;;;10.37;74.49;101449.59;5021456;28;45319;-68
2022/03/04 05:55:24;;;;;;;;;68.50;52.00;;;;;10.36;74.63;101448.72;5020934;28;45395;-68
2022/03/04 05:57:49;;;;;;;;;71.00;55.50;;;;;10.36;75.00;101447.84;5020420;28;45330;-68
2022/03/04 06:00:14;;;;;;;;;66.00;51.75;;;;;10.40;74.67;101454.75;5019991;28;47944;-68
2022/03/04 06:02:40;;;;;;;;;67.50;50.75;;;;;10.45;74.42;101452.47;5019383;28;45262;-68
2022/03/04 06:05:06;;;;;;;;;68.75;52.00;;;;;10.47;74.17;101454.09;5019559;28;45390;-68
2022/03/04 06:07:33;;;;;;;;;68.50;53.50;;;;;10.44;74.36;101451.66;5021308;28;45566;-67
2022/03/04 06:09:59;;;;;;;;;70.75;54.50;;;;;10.43;74.37;101457.22;5019420;28;47596;-67
2022/03/04 06:12:25;;;;;;;;;70.75;55.00;;;;;10.41;74.44;101457.31;5020188;28;45173;-68
2022/03/04 06:14:50;;;;;;;;;67.25;54.25;;;;;10.36;74.45;101454.16;5020825;28;45213;-67
2022/03/04 06:17:16;;;;;;;;;70.75;54.50;;;;;10.43;74.92;101460.78;5023600;28;45482;-67
2022/03/04 06:19:42;;;;;;;;;64.50;47.00;;;;;10.44;74.52;101467.94;5023987;28;46788;-67
2022/03/04 06:22:07;;;;;;;;;66.00;51.00;;;;;10.47;74.27;101469.53;5023781;28;45262;-67
2022/03/04 06:24:33;;;;;;;;;74.00;54.25;;;;;10.53;73.91;101480.72;5024790;28;45420;-67
2022/03/04 06:26:58;;;;;;;;;67.00;52.75;;;;;10.55;74.25;101480.59;5025504;28;45617;-67
2022/03/04 06:29:24;;;;;;;;;65.00;51.25;;;;;10.56;73.90;101476.91;5025221;28;46058;-67
2022/03/04 06:31:49;;;;;;;;;63.00;49.00;;;;;10.60;73.46;101478.34;5025293;28;45335;-68
2022/03/04 06:34:14;;;;;;;;;65.50;50.25;;;;;10.62;73.20;101480.94;5025343;28;45402;-69
2022/03/04 06:36:40;;;;;;;;;71.25;52.25;;;;;10.59;73.53;101482.09;5022911;28;45545;-68
2022/03/04 06:39:06;;;;;;;;;66.00;50.00;;;;;10.62;73.05;101481.81;5018021;28;47282;-68
2022/03/04 06:41:31;;;;;;;;;70.50;53.75;;;;;10.63;73.62;101483.53;5013378;28;45451;-68
2022/03/04 06:43:56;;;;;;;;;70.75;54.50;;;;;10.58;73.54;101487.66;5022858;28;45696;-68
2022/03/04 06:46:22;;;;;;;;;71.75;54.50;;;;;10.56;74.09;101492.34;5023149;28;45537;-69
2022/03/04 06:48:47;;;;;;;;;66.50;51.75;;;;;10.57;73.93;101500.38;5021967;28;48071;-68
2022/03/04 06:51:13;;;;;;;;;72.75;55.00;;;;;10.57;74.18;101507.66;5024180;28;45303;-69
2022/03/04 06:53:38;;;;;;;;;67.50;53.25;;;;;10.62;73.93;101500.81;5025123;28;45182;-69
2022/03/04 06:56:04;;;;;;;;;69.75;55.25;;;;;10.65;73.64;101507.88;5025715;28;45227;-68
2022/03/04 06:58:30;;;;;;;;;63.25;50.75;;;;;10.67;73.38;101514.00;5024475;28;45474;-69
2022/03/04 07:00:55;;;;;;;;;66.75;49.00;;;;;10.71;73.61;101513.63;5023871;28;45355;-68
2022/03/04 07:03:23;;;;;;;;;70.50;53.75;;;;;10.68;73.82;101519.31;5025172;28;45496;-68
2022/03/04 07:05:49;;;;;;;;;69.75;54.00;;;;;10.68;73.87;101505.72;5025485;28;45299;-68
2022/03/04 07:08:14;;;;;;;;;60.50;49.00;;;;;10.64;73.47;101517.88;5023419;28;48101;-69
2022/03/04 07:10:43;;;;;;;;;70.25;52.75;;;;;10.67;73.40;101522.16;5023596;28;45449;-68
2022/03/04 07:13:08;;;;;;;;;63.00;49.75;;;;;10.69;72.96;101529.22;5023195;28;45285;-68
2022/03/04 07:15:35;;;;;;;;;69.25;52.50;;;;;10.70;72.98;101528.22;5025327;28;45245;-68
2022/03/04 07:18:00;;;;;;;;;64.75;51.50;;;;;10.75;72.85;101531.41;5023731;28;45379;-68
2022/03/04 07:20:25;;;;;;;;;67.75;51.00;;;;;10.81;72.83;101525.44;5024515;28;45174;-68
2022/03/04 07:22:51;;;;;;;;;57.75;46.75;;;;;10.81;72.33;101527.31;5024429;28;45341;-68
2022/03/04 07:25:16;;;;;;;;;70.25;52.50;;;;;10.76;72.91;101534.97;5023320;28;45593;-69
2022/03/04 07:27:42;;;;;;;;;76.00;55.50;;;;;10.74;72.84;101540.53;5023409;28;45415;-68
2022/03/04 07:30:13;;;;;;;;;64.00;52.50;;;;;10.83;72.74;101544.34;5024594;28;45411;-69
2022/03/04 07:32:40;;;;;;;;;60.00;47.75;;;;;10.82;72.99;101546.19;5024192;28;45331;-69
2022/03/04 07:35:07;;;;;;;;;64.00;49.25;;;;;10.90;72.34;101548.25;5040037;28;45468;-67
2022/03/04 07:37:35;;;;;;;;;67.50;53.00;;;;;10.98;71.99;101543.03;5022483;28;47625;-68
2022/03/04 07:40:00;;;;;;;;;65.50;50.00;;;;;11.07;72.18;101550.41;5024174;28;45342;-68
2022/03/04 07:42:26;;;;;;;;;67.25;52.00;;;;;11.19;72.15;101551.19;5023996;28;45336;-68
2022/03/04 07:44:51;;;;;;;;;70.00;54.75;;;;;11.20;71.61;101542.91;5024491;28;45307;-69
2022/03/04 07:47:16;;;;;;;;;74.50;56.75;;;;;11.19;71.72;101551.19;5022456;28;48254;-68
2022/03/04 07:49:42;;;;;;;;;72.75;56.25;;;;;11.15;71.97;101555.19;5023868;28;45425;-68
2022/03/04 07:52:09;;;;;;;;;67.50;54.75;;;;;11.20;71.50;101561.06;5023529;28;45414;-68
2022/03/04 07:54:34;;;;;;;;;71.50;57.25;;;;;11.20;72.24;101555.63;5022760;28;45222;-67
2022/03/04 07:56:59;;;;;;;;;64.75;52.50;;;;;11.25;72.01;101556.97;5023120;28;46546;-67
2022/03/04 07:59:25;;;;;;;;;73.50;55.50;;;;;11.32;71.41;101560.03;5023527;28;45300;-69
2022/03/04 08:01:50;;;;;;;;;69.75;55.00;;;;;11.24;71.64;101557.13;5023847;28;45307;-68
2022/03/04 08:04:15;;;;;;;;;68.25;54.25;;;;;11.33;71.41;101553.56;5024626;28;45231;-68
2022/03/04 08:06:41;;;;;;;;;72.00;55.75;;;;;11.42;71.15;101560.94;5023595;28;46420;-67
2022/03/04 08:09:06;;;;;;;;;68.75;52.00;;;;;11.44;70.39;101556.22;5039258;28;45541;-68
2022/03/04 08:11:32;;;;;;;;;68.50;52.75;;;;;11.47;71.09;101560.56;5023486;28;45674;-68
2022/03/04 08:13:57;;;;;;;;;67.75;53.50;;;;;11.53;70.58;101573.63;5024582;28;45374;-68
2022/03/04 08:16:24;;;;;;;;;73.50;54.00;;;;;11.57;70.25;101550.56;5023437;28;45429;-68
2022/03/04 08:18:50;;;;;;;;;70.75;53.75;;;;;11.71;69.17;101569.25;5023830;28;45311;-68
2022/03/04 08:21:15;;;;;;;;;73.00;53.50;;;;;11.66;69.64;101577.84;5023463;28;45322;-68
2022/03/04 08:23:40;;;;;;;;;65.00;48.00;;;;;11.63;69.25;101575.38;5024182;28;45319;-68
2022/03/04 08:26:06;;;;;;;;;70.75;53.00;;;;;11.70;69.15;101579.28;5021810;28;48008;-69
2022/03/04 08:28:33;;;;;;;;;69.00;54.25;;;;;11.74;68.88;101579.03;5023083;28;45337;-68
2022/03/04 08:30:58;;;;;;;;;70.00;53.00;;;;;11.86;69.39;101586.13;5023643;28;45287;-68
2022/03/04 08:33:24;;;;;;;;;69.00;55.75;;;;;12.00;68.21;101583.03;5022351;28;45230;-68
2022/03/04 08:35:50;;;;;;;;;67.50;53.25;;;;;11.97;68.21;101580.59;5023292;28;45608;-68
2022/03/04 08:38:15;;;;;;;;;66.75;49.75;;;;;12.03;67.37;101580.91;5023310;28;45229;-68
2022/03/04 08:40:41;;;;;;;;;66.00;50.25;;;;;12.16;67.49;101583.38;5023010;28;45317;-68
2022/03/04 08:43:06;;;;;;;;;66.00;51.25;;;;;12.28;67.39;101590.44;5023687;28;45212;-68
2022/03/04 08:45:33;;;;;;;;;67.50;50.75;;;;;12.32;66.94;101575.56;5021855;28;47390;-68
2022/03/04 08:47:59;;;;;;;;;65.25;51.50;;;;;12.41;65.64;101585.63;5023550;28;45425;-68
2022/03/04 08:50:25;;;;;;;;;70.50;54.75;;;;;12.44;66.07;101589.91;5023015;28;45374;-68
2022/03/04 08:52:50;;;;;;;;;73.50;53.50;;;;;12.45;65.55;101581.59;5022438;28;45585;-68
2022/03/04 08:55:17;;;;;;;;;60.25;46.00;;;;;12.61;66.49;101585.66;5023187;28;46667;-68
2022/03/04 08:57:46;;;;;;;;;63.25;49.50;;;;;12.69;65.36;101594.00;5022909;28;45344;-68
2022/03/04 09:00:13;;;;;;;;;68.50;52.00;;;;;12.73;65.56;101589.97;5023150;28;45275;-68
2022/03/04 09:02:38;;;;;;;;;66.50;50.00;;;;;12.75;65.05;101590.69;5022424;28;45651;-68
2022/03/04 09:05:05;;;;;;;;;69.75;51.25;;;;;12.82;64.76;101595.44;5021815;28;46893;-68
2022/03/04 09:07:30;;;;;;;;;69.75;54.50;;;;;12.74;64.84;101592.56;5023124;28;45397;-68
2022/03/04 09:09:56;;;;;;;;;65.25;51.25;;;;;12.73;64.98;101596.28;5022884;28;45436;-68
2022/03/04 09:12:21;;;;;;;;;70.25;54.75;;;;;12.75;64.61;101593.41;5023313;28;45375;-68
2022/03/04 09:14:46;;;;;;;;;70.75;51.00;;;;;12.83;64.86;101585.38;5022899;28;45414;-68
2022/03/04 09:17:12;;;;;;;;;71.25;53.50;;;;;12.88;64.00;101592.13;5021476;28;45377;-68
2022/03/04 09:19:37;;;;;;;;;67.00;52.75;;;;;12.89;64.05;101590.28;5021557;28;45263;-68
2022/03/04 09:22:03;;;;;;;;;74.75;55.75;;;;;12.92;63.54;101590.00;5023295;28;45394;-69
2022/03/04 09:24:29;;;;;;;;;65.25;51.50;;;;;12.92;63.74;101591.84;5021169;28;48013;-70
2022/03/04 09:26:55;;;;;;;;;73.50;55.75;;;;;13.00;63.39;101595.59;5022399;28;45215;-69
2022/03/04 09:29:20;;;;;;;;;72.75;54.00;;;;;12.96;64.01;101594.16;5022769;28;45311;-68
2022/03/04 09:31:46;;;;;;;;;64.00;50.75;;;;;12.93;63.68;101590.84;5023079;28;45220;-69
2022/03/04 09:34:11;;;;;;;;;70.75;53.50;;;;;12.77;63.68;101591.41;5021234;28;47023;-68
2022/03/04 09:36:37;;;;;;;;;70.75;53.50;;;;;12.63;64.93;101597.28;5021119;28;45311;-68
2022/03/04 09:39:03;;;;;;;;;66.50;52.25;;;;;12.78;64.52;101591.25;5021415;28;45315;-68
2022/03/04 09:41:28;;;;;;;;;70.50;53.25;;;;;12.90;63.83;101594.72;5021475;28;45388;-69
2022/03/04 09:43:55;;;;;;;;;75.00;55.50;;;;;12.69;64.18;101589.41;5022459;28;46137;-68
2022/03/04 09:46:21;;;;;;;;;72.50;56.75;;;;;12.53;64.16;101588.22;5022434;28;45457;-68
2022/03/04 09:48:48;;;;;;;;;68.25;52.00;;;;;12.66;64.86;101594.25;5021153;28;45369;-68
2022/03/04 09:51:14;;;;;;;;;73.25;55.75;;;;;12.73;64.38;101588.09;5023752;28;45293;-68
2022/03/04 09:53:39;;;;;;;;;67.25;50.25;;;;;12.90;63.76;101592.00;5026049;28;45330;-68
2022/03/04 09:56:05;;;;;;;;;74.00;56.75;;;;;12.81;63.75;101577.34;5026050;28;45442;-68
2022/03/04 09:58:30;;;;;;;;;64.00;52.75;;;;;12.88;64.52;101597.59;5025634;28;45279;-68
2022/03/04 10:00:56;;;;;;;;;70.75;53.25;;;;;13.00;63.76;101595.59;5026318;28;45257;-68
2022/03/04 10:03:30;;;;;;;;;67.75;53.50;;;;;12.87;63.74;101597.72;5024724;28;47601;-68
2022/03/04 10:05:59;;;;;;;;;71.50;54.25;;;;;12.75;64.28;101593.41;5025860;28;45278;-69
2022/03/04 10:08:26;;;;;;;;;66.50;52.50;;;;;12.71;64.14;101602.91;5026173;28;45343;-68
2022/03/04 10:10:53;;;;;;;;;72.50;57.00;;;;;12.65;64.16;101600.72;5026501;28;45481;-69
2022/03/04 10:13:39;;;;;;;;;71.50;53.00;;;;;12.60;64.06;101605.72;5025245;28;45650;-69
2022/03/04 10:16:05;;;;;;;;;74.50;55.50;;;;;12.83;63.80;101599.03;5025602;28;45235;-69
2022/03/04 10:18:30;;;;;;;;;70.75;56.50;;;;;12.99;63.32;101601.19;5025682;28;45251;-68
2022/03/04 10:20:56;;;;;;;;;71.75;54.00;;;;;12.91;63.52;101599.19;5024860;28;45245;-68
2022/03/04 10:23:24;;;;;;;;;72.75;57.00;;;;;12.97;63.16;101595.88;5025687;28;46499;-69
2022/03/04 10:25:53;;;;;;;;;70.50;54.00;;;;;12.97;63.55;101604.06;5025854;28;45458;-68
2022/03/04 10:28:23;;;;;;;;;65.00;50.50;;;;;12.95;63.93;101605.19;5025081;28;45460;-68
2022/03/04 10:30:50;;;;;;;;;69.75;54.00;;;;;13.08;63.33;101609.34;5026072;28;45571;-69
2022/03/04 10:33:26;;;;;;;;;70.75;56.25;;;;;13.10;62.74;101612.81;5025463;28;45508;-68
2022/03/04 10:36:09;;;;;;;;;70.25;53.50;;;;;13.22;62.74;101611.69;5025242;28;45318;-68
2022/03/04 10:38:36;;;;;;;;;68.50;49.50;;;;;13.30;62.86;101605.50;5025581;28;45320;-69
2022/03/04 10:41:24;;;;;;;;;67.00;52.25;;;;;13.19;62.39;101609.25;5026006;28;45348;-69
2022/03/04 10:43:51;;;;;;;;;73.25;55.00;;;;;13.03;62.67;101608.94;5040416;28;47185;-68
2022/03/04 10:46:17;;;;;;;;;71.25;55.75;;;;;13.13;62.70;101612.56;5024911;28;45283;-69
2022/03/04 10:48:53;;;;;;;;;72.25;56.50;;;;;13.26;62.66;101612.28;5040325;28;45515;-68
2022/03/04 10:51:34;;;;;;;;;71.75;55.50;;;;;13.32;62.36;101605.34;5041002;28;45505;-69
2022/03/04 10:54:10;;;;;;;;;76.50;56.75;;;;;13.38;62.14;101610.22;5023662;28;46791;-69
2022/03/04 10:56:51;;;;;;;;;67.75;52.25;;;;;13.58;61.50;101607.34;5024362;28;45292;-69
2022/03/04 10:59:18;;;;;;;;;66.75;51.25;;;;;13.69;61.64;101611.75;5024945;28;45310;-69
2022/03/04 11:01:54;;;;;;;;;73.00;56.75;;;;;13.71;60.29;101612.47;5024681;28;45346;-69
2022/03/04 11:04:21;;;;;;;;;79.75;60.50;;;;;13.56;60.86;101603.03;5024735;28;45189;-69
2022/03/04 11:06:48;;;;;;;;;73.75;58.00;;;;;13.36;61.47;101606.81;5024422;28;45369;-68
2022/03/04 11:09:21;;;;;;;;;73.75;58.00;;;;;13.23;62.30;101609.81;5024569;28;45328;-69
2022/03/04 11:11:47;;;;;;;;;76.00;59.75;;;;;13.29;62.50;101608.41;5024506;28;45219;-68